createdAt,value
2022-12-26T00:02:11.376Z,6.90
2022-12-26T00:05:01.388Z,7.55
2022-12-26T00:07:51.679Z,6.93
2022-12-26T00:10:41.798Z,7.38
2022-12-26T00:13:39.997Z,7.38
2022-12-26T00:16:33.637Z,7.53
2022-12-26T00:19:23.770Z,7.85
2022-12-26T00:22:15.851Z,7.35
2022-12-26T00:25:06.688Z,7.55
2022-12-26T00:27:56.811Z,6.78
2022-12-26T00:30:47.017Z,6.45
2022-12-26T00:33:37.960Z,5.93
2022-12-26T00:36:32.689Z,6.72
2022-12-26T00:39:22.760Z,7.68
2022-12-26T00:42:12.770Z,7.78
2022-12-26T00:45:03.639Z,7.57
2022-12-26T00:47:53.861Z,6.88
2022-12-26T00:50:43.805Z,4.88
2022-12-26T00:53:35.517Z,3.50
2022-12-26T00:56:25.562Z,3.75
2022-12-26T00:59:15.482Z,6.00
2022-12-26T01:02:25.531Z,6.85
2022-12-26T01:05:15.803Z,6.93
2022-12-26T01:08:21.254Z,7.38
2022-12-26T01:11:36.760Z,7.35
2022-12-26T01:14:27.043Z,6.95
2022-12-26T01:17:16.983Z,7.00
2022-12-26T01:20:07.251Z,7.72
2022-12-26T01:22:57.523Z,6.70
2022-12-26T01:26:15.220Z,6.13
2022-12-26T01:28:58.481Z,6.38
2022-12-26T01:31:48.587Z,7.35
2022-12-26T01:34:38.912Z,5.05
2022-12-26T01:37:28.938Z,5.50
2022-12-26T01:40:19.007Z,5.88
2022-12-26T01:43:12.319Z,4.90
2022-12-26T01:46:02.417Z,4.80
2022-12-26T01:48:54.156Z,5.40
2022-12-26T01:51:49.694Z,5.18
2022-12-26T01:54:43.250Z,4.57
2022-12-26T01:57:42.272Z,3.88
2022-12-26T02:00:33.511Z,4.93
2022-12-26T02:03:42.291Z,5.68
2022-12-26T02:06:34.655Z,6.82
2022-12-26T02:09:25.215Z,7.20
2022-12-26T02:12:34.275Z,6.30
2022-12-26T02:15:27.513Z,6.82
2022-12-26T02:18:17.456Z,7.40
2022-12-26T02:21:32.126Z,7.60
2022-12-26T02:24:49.904Z,8.13
2022-12-26T02:28:03.372Z,8.25
2022-12-26T02:31:19.975Z,7.50
2022-12-26T02:34:19.550Z,7.65
2022-12-26T02:37:38.995Z,6.93
2022-12-26T02:40:35.296Z,6.82
2022-12-26T02:43:47.191Z,7.00
2022-12-26T02:47:04.339Z,7.63
2022-12-26T02:50:34.720Z,5.15
2022-12-26T02:53:58.381Z,3.80
2022-12-26T02:57:16.416Z,3.72
2022-12-26T03:00:30.552Z,3.78
2022-12-26T03:03:44.932Z,3.85
2022-12-26T03:06:56.327Z,6.15
2022-12-26T03:10:06.943Z,6.70
2022-12-26T03:13:11.628Z,6.60
2022-12-26T03:16:25.870Z,5.70
2022-12-26T03:19:16.472Z,6.60
2022-12-26T03:22:28.344Z,5.10
2022-12-26T03:25:58.913Z,3.97
2022-12-26T03:28:49.173Z,3.60
2022-12-26T03:31:39.428Z,2.92
2022-12-26T03:34:29.837Z,2.80
2022-12-26T03:37:51.341Z,2.92
2022-12-26T03:41:09.431Z,3.38
2022-12-26T03:44:54.156Z,3.05
2022-12-26T03:48:16.298Z,2.53
2022-12-26T03:51:31.235Z,4.22
2022-12-26T03:54:48.947Z,5.43
2022-12-26T03:58:17.542Z,5.30
2022-12-26T04:01:33.358Z,5.90
2022-12-26T04:04:44.912Z,6.32
2022-12-26T04:08:00.106Z,6.35
2022-12-26T04:11:14.270Z,6.35
2022-12-26T04:15:14.454Z,5.78
2022-12-26T04:18:29.999Z,6.20
2022-12-26T04:21:54.154Z,5.65
2022-12-26T04:25:17.131Z,5.47
2022-12-26T04:28:26.358Z,5.18
2022-12-26T04:31:51.731Z,5.72
2022-12-26T04:35:09.104Z,5.18
2022-12-26T04:38:17.904Z,5.10
2022-12-26T04:41:29.463Z,4.88
2022-12-26T04:44:24.372Z,5.40
2022-12-26T04:47:14.583Z,5.03
2022-12-26T04:50:12.534Z,5.05
2022-12-26T04:53:02.455Z,4.32
2022-12-26T04:55:52.341Z,3.20
2022-12-26T04:58:42.679Z,3.10
2022-12-26T05:01:51.875Z,3.55
2022-12-26T05:05:00.595Z,2.95
2022-12-26T05:08:09.469Z,3.05
2022-12-26T05:10:59.609Z,2.85
2022-12-26T05:13:51.010Z,2.90
2022-12-26T05:16:59.843Z,2.60
2022-12-26T05:20:08.698Z,2.70
2022-12-26T05:23:20.363Z,2.58
2022-12-26T05:26:38.931Z,3.15
2022-12-26T05:29:29.093Z,2.90
2022-12-26T05:32:37.484Z,3.13
2022-12-26T05:35:27.720Z,2.65
2022-12-26T05:38:17.978Z,2.83
2022-12-26T05:41:08.343Z,4.72
2022-12-26T05:43:58.397Z,4.63
2022-12-26T05:46:48.766Z,4.88
2022-12-26T05:49:38.788Z,5.07
2022-12-26T05:52:29.474Z,4.97
2022-12-26T05:55:19.585Z,4.40
2022-12-26T05:58:09.571Z,4.50
2022-12-26T06:01:08.485Z,4.57
2022-12-26T06:04:00.154Z,4.68
2022-12-26T06:06:50.481Z,4.95
2022-12-26T06:09:40.949Z,5.00
2022-12-26T06:12:30.847Z,4.35
2022-12-26T06:15:20.707Z,4.85
2022-12-26T06:18:10.609Z,4.80
2022-12-26T06:21:04.666Z,4.75
2022-12-26T06:26:44.982Z,4.25
2022-12-26T06:29:36.729Z,4.80
2022-12-26T06:32:26.766Z,5.05
2022-12-26T06:35:16.983Z,4.43
2022-12-26T06:38:06.809Z,5.00
2022-12-26T06:40:56.892Z,4.63
2022-12-26T06:43:47.408Z,4.80
2022-12-26T06:46:37.535Z,4.85
2022-12-26T06:49:32.743Z,4.35
2022-12-26T06:52:23.437Z,3.88
2022-12-26T06:55:13.461Z,4.72
2022-12-26T06:58:03.433Z,4.05
2022-12-26T07:00:53.565Z,4.82
2022-12-26T07:03:50.773Z,4.32
2022-12-26T07:06:41.648Z,3.63
2022-12-26T07:09:33.927Z,4.05
2022-12-26T07:12:24.651Z,3.90
2022-12-26T07:15:15.496Z,4.28
2022-12-26T07:18:05.555Z,4.53
2022-12-26T07:20:55.479Z,5.07
2022-12-26T07:23:45.916Z,4.82
2022-12-26T07:26:35.705Z,5.40
2022-12-26T07:29:25.766Z,5.18
2022-12-26T07:32:15.957Z,5.32
2022-12-26T07:35:06.533Z,5.85
2022-12-26T07:37:56.720Z,5.82
2022-12-26T07:40:46.523Z,5.55
2022-12-26T07:43:36.434Z,5.80
2022-12-26T07:46:26.410Z,5.97
2022-12-26T07:49:16.696Z,5.65
2022-12-26T07:52:06.882Z,6.30
2022-12-26T07:54:57.403Z,5.38
2022-12-26T07:57:53.644Z,5.15
2022-12-26T08:00:43.938Z,5.05
2022-12-26T08:03:35.505Z,5.63
2022-12-26T08:06:25.565Z,6.53
2022-12-26T08:09:16.173Z,6.10
2022-12-26T08:12:06.822Z,6.30
2022-12-26T08:14:56.989Z,5.30
2022-12-26T08:17:47.377Z,6.20
2022-12-26T08:20:37.157Z,6.10
2022-12-26T08:23:27.136Z,6.97
2022-12-26T08:26:22.347Z,6.68
2022-12-26T08:29:12.512Z,7.78
2022-12-26T08:32:02.382Z,7.57
2022-12-26T08:34:52.684Z,6.80
2022-12-26T08:37:42.980Z,6.63
2022-12-26T08:40:43.260Z,5.60
2022-12-26T08:46:45.560Z,8.60
2022-12-26T08:49:35.785Z,7.93
2022-12-26T08:52:26.109Z,8.50
2022-12-26T08:55:15.932Z,12.68
2022-12-26T08:58:06.048Z,11.75
2022-12-26T09:01:05.124Z,9.65
2022-12-26T09:03:58.738Z,7.45
2022-12-26T09:06:49.239Z,7.25
2022-12-26T09:09:39.799Z,6.68
2022-12-26T09:12:29.767Z,5.80
2022-12-26T09:15:19.762Z,5.43
2022-12-26T09:18:10.866Z,5.68
2022-12-26T09:21:03.659Z,5.75
2022-12-26T09:23:58.772Z,6.00
2022-12-26T09:26:48.935Z,4.95
2022-12-26T09:29:39.257Z,5.13
2022-12-26T09:32:33.667Z,5.60
2022-12-26T09:38:14.077Z,6.07
2022-12-26T09:41:22.672Z,5.53
2022-12-26T09:44:31.812Z,4.65
2022-12-26T09:47:36.511Z,4.10
2022-12-26T09:50:42.884Z,3.65
2022-12-26T09:53:40.060Z,2.95
2022-12-26T09:59:50.002Z,3.10
2022-12-26T10:02:40.319Z,3.08
2022-12-26T10:05:40.509Z,2.58
2022-12-26T10:08:49.612Z,1.90
2022-12-26T10:11:49.496Z,2.10
2022-12-26T10:14:52.527Z,2.22
2022-12-26T10:17:53.580Z,2.20
2022-12-26T10:21:13.223Z,2.25
2022-12-26T10:24:24.427Z,1.50
2022-12-26T10:27:17.411Z,1.92
2022-12-26T10:30:27.423Z,1.83
2022-12-26T10:33:44.481Z,1.48
2022-12-26T10:36:40.463Z,1.88
2022-12-26T10:39:49.213Z,1.70
2022-12-26T10:42:42.329Z,2.22
2022-12-26T10:45:41.143Z,2.20
2022-12-26T10:48:33.953Z,2.47
2022-12-26T10:51:24.893Z,2.08
2022-12-26T10:54:17.991Z,1.75
2022-12-26T10:57:09.349Z,2.15
2022-12-26T11:00:00.244Z,2.15
2022-12-26T11:03:14.833Z,2.70
2022-12-26T11:06:08.005Z,3.28
2022-12-26T11:08:59.389Z,2.90
2022-12-26T11:11:52.883Z,2.58
2022-12-26T11:14:45.626Z,2.20
2022-12-26T11:17:41.997Z,1.83
2022-12-26T11:20:32.438Z,1.20
2022-12-26T11:23:24.469Z,1.17
2022-12-26T11:26:26.788Z,1.20
2022-12-26T11:29:19.695Z,1.48
2022-12-26T11:32:19.871Z,1.30
2022-12-26T11:35:17.467Z,0.93
2022-12-26T11:38:39.218Z,1.10
2022-12-26T11:41:41.720Z,1.95
2022-12-26T11:44:35.823Z,1.90
2022-12-26T11:47:28.629Z,2.20
2022-12-26T11:50:21.623Z,2.10
2022-12-26T11:53:17.387Z,5.65
2022-12-26T11:56:08.673Z,2.22
2022-12-26T11:59:16.764Z,3.10
2022-12-26T12:02:25.181Z,1.50
2022-12-26T12:05:29.323Z,1.67
2022-12-26T12:08:52.851Z,1.90
2022-12-26T12:12:03.506Z,1.38
2022-12-26T12:15:10.405Z,1.10
2022-12-26T12:18:22.239Z,1.23
2022-12-26T12:21:30.941Z,0.80
2022-12-26T12:24:29.934Z,1.17
2022-12-26T12:27:31.540Z,0.90
2022-12-26T12:30:29.402Z,0.63
2022-12-26T12:33:39.547Z,0.90
2022-12-26T12:36:41.188Z,0.63
2022-12-26T12:39:44.146Z,0.60
2022-12-26T12:42:47.237Z,0.70
2022-12-26T12:46:03.058Z,0.60
2022-12-26T12:49:08.766Z,0.95
2022-12-26T12:52:17.570Z,0.70
2022-12-26T12:55:30.088Z,0.82
2022-12-26T12:58:36.095Z,0.70
2022-12-26T13:01:30.074Z,0.60
2022-12-26T13:04:26.795Z,0.60
2022-12-26T13:07:19.926Z,0.45
2022-12-26T13:10:22.812Z,0.63
2022-12-26T13:13:30.710Z,0.50
2022-12-26T13:16:26.355Z,0.47
2022-12-26T13:19:24.805Z,0.88
2022-12-26T13:22:23.697Z,0.50
2022-12-26T13:25:13.932Z,0.52
2022-12-26T13:28:10.038Z,0.68
2022-12-26T13:31:00.655Z,0.60
2022-12-26T13:33:51.167Z,0.80
2022-12-26T13:36:54.683Z,0.68
2022-12-26T13:39:45.081Z,0.60
2022-12-26T13:43:19.417Z,0.60
2022-12-26T13:46:34.532Z,0.60
2022-12-26T13:49:38.751Z,0.50
2022-12-26T13:52:34.693Z,0.70
2022-12-26T13:55:42.204Z,0.73
2022-12-26T13:58:47.828Z,0.70
2022-12-26T14:01:55.404Z,0.60
2022-12-26T14:05:13.371Z,0.55
2022-12-26T14:08:09.372Z,0.70
2022-12-26T14:11:30.110Z,0.80
2022-12-26T14:14:42.011Z,0.50
2022-12-26T14:18:07.825Z,0.85
2022-12-26T14:21:16.766Z,0.63
2022-12-26T14:24:12.525Z,0.50
2022-12-26T14:27:18.355Z,0.70
2022-12-26T14:30:21.992Z,0.60
2022-12-26T14:33:18.240Z,0.80
2022-12-26T14:36:15.072Z,0.90
2022-12-26T14:39:30.465Z,0.55
2022-12-26T14:42:43.698Z,0.70
2022-12-26T14:45:42.707Z,0.70
2022-12-26T14:48:32.829Z,0.73
2022-12-26T14:51:32.734Z,0.50
2022-12-26T14:54:23.479Z,0.73
2022-12-26T14:57:40.111Z,0.70
2022-12-26T15:00:32.520Z,0.70
2022-12-26T15:03:44.722Z,0.63
2022-12-26T15:07:16.875Z,0.85
2022-12-26T15:13:15.366Z,1.02
2022-12-26T15:16:32.557Z,0.80
2022-12-26T15:19:46.688Z,0.85
2022-12-26T15:23:01.681Z,1.80
2022-12-26T15:26:03.974Z,1.00
2022-12-26T15:29:11.442Z,0.93
2022-12-26T15:32:16.606Z,0.77
2022-12-26T15:35:20.494Z,1.30
2022-12-26T15:38:24.062Z,1.13
2022-12-26T15:41:28.006Z,1.20
2022-12-26T15:44:31.852Z,1.15
2022-12-26T15:47:31.673Z,0.88
2022-12-26T15:50:29.545Z,1.50
2022-12-26T15:53:28.785Z,0.98
2022-12-26T15:56:59.793Z,1.20
2022-12-26T16:00:08.309Z,1.25
2022-12-26T16:03:29.344Z,1.35
2022-12-26T16:06:44.307Z,1.30
2022-12-26T16:12:58.934Z,1.30
2022-12-26T16:15:56.298Z,1.17
2022-12-26T16:18:46.734Z,1.40
2022-12-26T16:21:55.334Z,1.17
2022-12-26T16:24:47.279Z,1.63
2022-12-26T16:27:38.361Z,1.45
2022-12-26T16:30:34.713Z,1.58
2022-12-26T16:33:25.312Z,1.50
2022-12-26T16:36:25.098Z,1.67
2022-12-26T16:39:22.395Z,2.10
2022-12-26T16:42:30.081Z,1.90
2022-12-26T16:45:21.892Z,1.98
2022-12-26T16:48:16.315Z,5.22
2022-12-26T16:51:26.981Z,8.02
2022-12-26T16:54:30.160Z,6.18
2022-12-26T16:57:22.349Z,5.10
2022-12-26T17:00:18.694Z,4.13
2022-12-26T17:03:15.836Z,3.70
2022-12-26T17:06:13.788Z,3.60
2022-12-26T17:09:09.554Z,9.55
2022-12-26T17:12:09.142Z,9.07
2022-12-26T17:15:01.817Z,4.20
2022-12-26T17:17:52.076Z,4.47
2022-12-26T17:20:42.256Z,4.30
2022-12-26T17:23:36.034Z,3.45
2022-12-26T17:26:29.423Z,4.13
2022-12-26T17:30:00.523Z,2.83
2022-12-26T17:32:50.879Z,2.72
2022-12-26T17:36:38.269Z,2.50
2022-12-26T17:38:55.224Z,2.35
2022-12-26T17:41:55.162Z,1.83
2022-12-26T17:44:46.047Z,1.65
2022-12-26T17:47:36.684Z,1.60
2022-12-26T17:50:32.636Z,1.98
2022-12-26T17:53:37.887Z,1.80
2022-12-26T17:56:28.257Z,1.52
2022-12-26T17:59:18.347Z,2.08
2022-12-26T18:02:12.122Z,1.80
2022-12-26T18:05:02.295Z,2.00
2022-12-26T18:07:52.706Z,2.05
2022-12-26T18:10:42.917Z,1.50
2022-12-26T18:13:33.715Z,1.42
2022-12-26T18:16:28.134Z,1.38
2022-12-26T18:19:19.979Z,1.20
2022-12-26T18:22:14.600Z,1.42
2022-12-26T18:25:05.226Z,1.20
2022-12-26T18:27:55.253Z,1.48
2022-12-26T18:30:46.143Z,1.13
2022-12-26T18:33:36.272Z,1.05
2022-12-26T18:36:34.273Z,1.13
2022-12-26T18:39:25.170Z,1.08
2022-12-26T18:42:16.752Z,0.85
2022-12-26T18:45:07.307Z,0.55
2022-12-26T18:47:58.860Z,0.68
2022-12-26T18:50:49.205Z,0.70
2022-12-26T18:53:39.423Z,0.70
2022-12-26T18:56:29.651Z,1.35
2022-12-26T18:59:19.852Z,1.17
2022-12-26T19:02:18.404Z,1.30
2022-12-26T19:05:19.297Z,1.63
2022-12-26T19:08:11.179Z,1.60
2022-12-26T19:11:01.403Z,1.88
2022-12-26T19:13:51.506Z,1.60
2022-12-26T19:16:42.185Z,0.95
2022-12-26T19:19:32.545Z,0.98
2022-12-26T19:22:22.867Z,0.52
2022-12-26T19:25:14.635Z,0.50
2022-12-26T19:28:05.515Z,0.80
2022-12-26T19:30:55.809Z,0.60
2022-12-26T19:33:46.287Z,0.60
2022-12-26T19:36:37.463Z,0.80
2022-12-26T19:39:28.127Z,1.00
2022-12-26T19:42:18.451Z,0.85
2022-12-26T19:45:11.328Z,1.00
2022-12-26T19:48:01.601Z,0.77
2022-12-26T19:50:51.989Z,0.90
2022-12-26T19:53:43.305Z,1.00
2022-12-26T19:56:33.902Z,1.02
2022-12-26T19:59:24.234Z,0.80
2022-12-26T20:02:15.065Z,0.90
2022-12-26T20:05:06.400Z,0.95
2022-12-26T20:07:56.654Z,1.15
2022-12-26T20:11:00.508Z,1.00
2022-12-26T20:13:51.775Z,0.90
2022-12-26T20:19:55.347Z,0.90
2022-12-26T20:22:51.204Z,0.70
2022-12-26T20:25:43.079Z,0.82
2022-12-26T20:28:34.787Z,1.02
2022-12-26T20:31:25.383Z,0.98
2022-12-26T20:34:16.328Z,0.93
2022-12-26T20:37:06.940Z,1.20
2022-12-26T20:39:59.143Z,1.17
2022-12-26T20:42:49.338Z,1.75
2022-12-26T20:45:40.030Z,1.40
2022-12-26T20:48:30.546Z,1.17
2022-12-26T20:51:30.213Z,1.15
2022-12-26T20:57:16.719Z,1.35
2022-12-26T21:00:07.819Z,1.13
2022-12-26T21:02:58.361Z,1.13
2022-12-26T21:05:48.935Z,0.98
2022-12-26T21:08:41.961Z,1.00
2022-12-26T21:11:35.284Z,1.00
2022-12-26T21:14:25.946Z,1.10
2022-12-26T21:17:18.808Z,0.90
2022-12-26T21:20:09.749Z,0.93
2022-12-26T21:23:00.042Z,0.82
2022-12-26T21:25:50.472Z,1.10
2022-12-26T21:28:41.471Z,0.85
2022-12-26T21:31:32.809Z,1.00
2022-12-26T21:34:25.850Z,1.20
2022-12-26T21:37:34.798Z,1.15
2022-12-26T21:40:27.609Z,1.00
2022-12-26T21:43:17.793Z,1.23
2022-12-26T21:46:11.508Z,1.40
2022-12-26T21:49:01.479Z,1.23
2022-12-26T21:51:51.395Z,1.00
2022-12-26T21:55:00.255Z,1.00
2022-12-26T21:57:50.548Z,1.42
2022-12-26T22:00:41.996Z,1.10
2022-12-26T22:03:50.995Z,1.02
2022-12-26T22:06:41.850Z,1.10
2022-12-26T22:09:32.073Z,0.80
2022-12-26T22:12:41.107Z,1.15
2022-12-26T22:15:50.473Z,0.93
2022-12-26T22:18:46.422Z,0.80
2022-12-26T22:21:39.024Z,0.77
2022-12-26T22:24:29.519Z,1.00
2022-12-26T22:27:19.850Z,0.93
2022-12-26T22:30:10.797Z,0.85
2022-12-26T22:33:00.946Z,0.60
2022-12-26T22:35:51.427Z,0.90
2022-12-26T22:38:41.800Z,1.00
2022-12-26T22:41:33.251Z,1.00
2022-12-26T22:44:23.558Z,0.98
2022-12-26T22:47:13.799Z,0.90
2022-12-26T22:50:04.108Z,1.00
2022-12-26T22:52:54.237Z,1.13
2022-12-26T22:55:50.861Z,1.10
2022-12-26T22:58:41.202Z,0.95
2022-12-26T23:01:31.413Z,1.30
2022-12-26T23:04:23.555Z,1.58
2022-12-26T23:07:17.319Z,1.33
2022-12-26T23:10:09.197Z,1.35
2022-12-26T23:12:59.717Z,1.52
2022-12-26T23:15:58.395Z,2.50
2022-12-26T23:19:18.446Z,1.80
2022-12-26T23:22:08.869Z,1.30
2022-12-26T23:25:00.412Z,1.50
2022-12-26T23:28:08.897Z,1.20
2022-12-26T23:30:59.159Z,1.30
2022-12-26T23:33:48.952Z,1.27
2022-12-26T23:36:38.889Z,1.10
2022-12-26T23:39:29.674Z,1.73
2022-12-26T23:42:19.547Z,1.00
2022-12-26T23:45:11.760Z,1.15
2022-12-26T23:48:01.951Z,1.10
2022-12-26T23:51:01.331Z,1.40
2022-12-26T23:53:52.998Z,1.30
2022-12-26T23:56:43.170Z,1.23
2022-12-26T23:59:33.572Z,1.00
